createdAt,value
2022-08-30T00:00:52.878Z,93.60
2022-08-30T00:01:52.857Z,93.54
2022-08-30T00:02:53.018Z,93.40
2022-08-30T00:03:53.072Z,93.24
2022-08-30T00:04:52.854Z,93.13
2022-08-30T00:05:52.830Z,93.19
2022-08-30T00:06:52.836Z,92.58
2022-08-30T00:07:52.808Z,92.79
2022-08-30T00:08:52.782Z,93.03
2022-08-30T00:09:52.786Z,93.03
2022-08-30T00:10:52.766Z,92.99
2022-08-30T00:11:52.762Z,93.09
2022-08-30T00:12:52.739Z,93.13
2022-08-30T00:13:52.734Z,92.93
2022-08-30T00:14:52.722Z,93.13
2022-08-30T00:15:52.841Z,92.83
2022-08-30T00:16:52.751Z,93.13
2022-08-30T00:17:52.718Z,93.03
2022-08-30T00:18:52.680Z,92.83
2022-08-30T00:19:52.656Z,93.03
2022-08-30T00:20:52.660Z,92.93
2022-08-30T00:21:52.662Z,92.93
2022-08-30T00:22:52.651Z,92.97
2022-08-30T00:23:52.623Z,93.24
2022-08-30T00:24:52.604Z,93.24
2022-08-30T00:25:52.598Z,92.93
2022-08-30T00:26:52.590Z,93.28
2022-08-30T00:27:52.621Z,92.93
2022-08-30T00:28:52.566Z,93.13
2022-08-30T00:29:52.553Z,93.03
2022-08-30T00:30:52.676Z,92.83
2022-08-30T00:31:52.536Z,92.93
2022-08-30T00:32:52.525Z,92.93
2022-08-30T00:33:52.503Z,93.03
2022-08-30T00:34:52.502Z,92.72
2022-08-30T00:35:52.507Z,93.13
2022-08-30T00:36:52.500Z,92.52
2022-08-30T00:37:52.468Z,93.03
2022-08-30T00:38:52.456Z,92.93
2022-08-30T00:39:52.440Z,92.93
2022-08-30T00:40:52.427Z,93.03
2022-08-30T00:41:52.459Z,93.24
2022-08-30T00:42:56.782Z,93.24
2022-08-30T00:43:53.396Z,93.44
2022-08-30T00:44:52.384Z,93.64
2022-08-30T00:45:52.418Z,93.13
2022-08-30T00:46:52.392Z,93.28
2022-08-30T00:47:52.358Z,93.33
2022-08-30T00:48:52.344Z,93.33
2022-08-30T00:49:52.331Z,93.24
2022-08-30T00:50:52.329Z,93.33
2022-08-30T00:51:52.309Z,93.24
2022-08-30T00:52:52.297Z,93.48
2022-08-30T00:53:52.300Z,93.59
2022-08-30T00:54:52.320Z,93.54
2022-08-30T00:55:52.264Z,93.44
2022-08-30T00:56:52.256Z,93.24
2022-08-30T00:57:52.240Z,93.95
2022-08-30T00:58:52.242Z,94.29
2022-08-30T00:59:52.217Z,93.74
2022-08-30T01:00:52.204Z,93.74
2022-08-30T01:01:52.315Z,94.09
2022-08-30T01:02:52.276Z,93.99
2022-08-30T01:03:52.204Z,93.84
2022-08-30T01:04:52.178Z,93.74
2022-08-30T01:05:52.157Z,93.99
2022-08-30T01:06:52.144Z,94.20
2022-08-30T01:07:52.130Z,94.20
2022-08-30T01:08:52.133Z,94.05
2022-08-30T01:09:52.248Z,94.35
2022-08-30T01:10:52.110Z,94.25
2022-08-30T01:11:52.102Z,94.15
2022-08-30T01:12:52.087Z,94.20
2022-08-30T01:13:52.110Z,94.40
2022-08-30T01:14:52.060Z,93.95
2022-08-30T01:15:52.082Z,93.59
2022-08-30T01:16:52.073Z,93.95
2022-08-30T01:17:52.040Z,93.99
2022-08-30T01:18:52.007Z,93.95
2022-08-30T01:19:52.002Z,94.56
2022-08-30T01:20:51.988Z,94.20
2022-08-30T01:21:51.992Z,94.20
2022-08-30T01:22:51.981Z,94.40
2022-08-30T01:23:51.970Z,94.50
2022-08-30T01:24:51.948Z,93.89
2022-08-30T01:25:51.932Z,93.99
2022-08-30T01:26:51.929Z,94.40
2022-08-30T01:27:51.918Z,95.01
2022-08-30T01:28:51.972Z,95.10
2022-08-30T01:29:51.906Z,94.85
2022-08-30T01:30:51.949Z,94.24
2022-08-30T01:31:51.901Z,94.40
2022-08-30T01:32:51.857Z,94.40
2022-08-30T01:33:51.846Z,94.50
2022-08-30T01:34:51.834Z,94.04
2022-08-30T01:35:51.843Z,94.29
2022-08-30T01:36:51.838Z,94.29
2022-08-30T01:37:51.796Z,94.74
2022-08-30T01:38:51.792Z,95.01
2022-08-30T01:39:51.781Z,95.05
2022-08-30T01:40:51.764Z,93.22
2022-08-30T01:41:51.763Z,94.13
2022-08-30T01:42:51.780Z,95.15
2022-08-30T01:43:51.737Z,95.00
2022-08-30T01:44:51.728Z,94.85
2022-08-30T01:45:51.748Z,95.36
2022-08-30T01:46:51.712Z,95.15
2022-08-30T01:47:51.695Z,95.00
2022-08-30T01:48:54.234Z,95.05
2022-08-30T01:49:51.664Z,94.74
2022-08-30T01:50:51.657Z,95.40
2022-08-30T01:51:51.670Z,94.24
2022-08-30T01:52:52.640Z,94.59
2022-08-30T01:53:51.654Z,94.64
2022-08-30T01:54:51.651Z,94.54
2022-08-30T01:55:51.610Z,93.63
2022-08-30T01:56:51.585Z,93.93
2022-08-30T01:57:51.597Z,94.04
2022-08-30T01:58:51.573Z,94.13
2022-08-30T01:59:51.562Z,93.52
2022-08-30T02:00:51.579Z,94.44
2022-08-30T02:01:51.615Z,94.08
2022-08-30T02:02:51.521Z,94.13
2022-08-30T02:03:51.711Z,94.74
2022-08-30T02:04:51.504Z,93.98
2022-08-30T02:05:51.498Z,94.13
2022-08-30T02:06:51.528Z,93.22
2022-08-30T02:07:51.474Z,93.52
2022-08-30T02:08:51.472Z,93.63
2022-08-30T02:09:51.451Z,93.12
2022-08-30T02:10:51.436Z,94.04
2022-08-30T02:11:51.432Z,94.08
2022-08-30T02:12:51.453Z,93.67
2022-08-30T02:13:51.442Z,93.98
2022-08-30T02:14:51.390Z,94.04
2022-08-30T02:15:51.478Z,94.08
2022-08-30T02:16:51.427Z,94.04
2022-08-30T02:17:51.358Z,94.04
2022-08-30T02:18:51.347Z,94.04
2022-08-30T02:19:51.383Z,94.08
2022-08-30T02:20:51.322Z,94.04
2022-08-30T02:21:51.324Z,94.08
2022-08-30T02:22:51.306Z,94.08
2022-08-30T02:23:51.304Z,93.67
2022-08-30T02:24:51.286Z,93.67
2022-08-30T02:25:51.400Z,94.69
2022-08-30T02:26:51.269Z,93.67
2022-08-30T02:27:51.252Z,94.28
2022-08-30T02:28:51.244Z,93.98
2022-08-30T02:29:51.228Z,93.67
2022-08-30T02:30:51.299Z,94.48
2022-08-30T02:31:51.207Z,93.98
2022-08-30T02:32:51.211Z,93.87
2022-08-30T02:33:51.189Z,94.18
2022-08-30T02:34:51.170Z,93.93
2022-08-30T02:35:51.174Z,94.04
2022-08-30T02:36:51.147Z,93.87
2022-08-30T02:37:51.138Z,93.98
2022-08-30T02:38:51.173Z,94.04
2022-08-30T02:39:51.117Z,94.13
2022-08-30T02:40:51.112Z,93.67
2022-08-30T02:41:51.116Z,93.57
2022-08-30T02:42:51.086Z,93.67
2022-08-30T02:43:51.075Z,93.83
2022-08-30T02:44:51.111Z,93.98
2022-08-30T02:45:51.115Z,93.63
2022-08-30T02:46:51.041Z,93.67
2022-08-30T02:47:51.047Z,93.87
2022-08-30T02:48:51.022Z,94.04
2022-08-30T02:49:51.011Z,93.83
2022-08-30T02:50:51.013Z,94.18
2022-08-30T02:51:50.984Z,94.13
2022-08-30T02:52:50.998Z,93.87
2022-08-30T02:53:50.965Z,93.77
2022-08-30T02:54:50.951Z,94.34
2022-08-30T02:55:50.939Z,94.64
2022-08-30T02:56:50.945Z,94.79
2022-08-30T02:57:50.917Z,94.89
2022-08-30T02:58:50.920Z,95.20
2022-08-30T02:59:50.898Z,95.15
2022-08-30T03:00:50.934Z,94.74
2022-08-30T03:01:50.878Z,94.54
2022-08-30T03:02:50.945Z,93.83
2022-08-30T03:03:50.877Z,94.04
2022-08-30T03:04:50.841Z,93.93
2022-08-30T03:05:50.879Z,93.93
2022-08-30T03:06:50.815Z,94.04
2022-08-30T03:07:50.808Z,94.04
2022-08-30T03:08:50.806Z,94.50
2022-08-30T03:09:50.785Z,94.34
2022-08-30T03:10:50.776Z,94.34
2022-08-30T03:11:50.792Z,93.32
2022-08-30T03:12:50.754Z,91.90
2022-08-30T03:13:50.759Z,93.12
2022-08-30T03:14:50.732Z,93.43
2022-08-30T03:15:50.718Z,93.43
2022-08-30T03:16:50.755Z,93.98
2022-08-30T03:17:50.700Z,93.67
2022-08-30T03:18:50.768Z,93.12
2022-08-30T03:19:50.674Z,93.43
2022-08-30T03:20:54.595Z,93.02
2022-08-30T03:21:50.652Z,92.82
2022-08-30T03:22:50.649Z,93.12
2022-08-30T03:23:50.634Z,93.02
2022-08-30T03:24:50.796Z,92.57
2022-08-30T03:25:50.608Z,92.82
2022-08-30T03:26:50.596Z,92.82
2022-08-30T03:27:50.620Z,92.77
2022-08-30T03:28:50.579Z,93.12
2022-08-30T03:29:50.566Z,93.02
2022-08-30T03:30:50.569Z,93.52
2022-08-30T03:31:52.667Z,93.83
2022-08-30T03:32:50.528Z,94.04
2022-08-30T03:33:50.523Z,93.93
2022-08-30T03:34:50.504Z,94.13
2022-08-30T03:35:50.502Z,94.13
2022-08-30T03:36:50.501Z,94.09
2022-08-30T03:37:56.198Z,94.04
2022-08-30T03:38:51.464Z,94.44
2022-08-30T03:39:50.463Z,94.24
2022-08-30T03:40:50.442Z,93.99
2022-08-30T03:41:50.432Z,94.04
2022-08-30T03:42:50.432Z,94.34
2022-08-30T03:43:50.470Z,94.13
2022-08-30T03:44:50.497Z,93.83
2022-08-30T03:45:50.433Z,94.24
2022-08-30T03:46:50.390Z,93.63
2022-08-30T03:47:50.360Z,93.63
2022-08-30T03:48:50.359Z,93.63
2022-08-30T03:49:50.380Z,93.37
2022-08-30T03:50:50.344Z,94.04
2022-08-30T03:51:50.329Z,94.04
2022-08-30T03:52:50.312Z,93.93
2022-08-30T03:53:50.296Z,93.67
2022-08-30T03:54:50.284Z,94.44
2022-08-30T03:55:50.295Z,94.54
2022-08-30T03:56:50.309Z,94.04
2022-08-30T03:57:50.257Z,93.93
2022-08-30T03:58:50.251Z,94.54
2022-08-30T03:59:50.227Z,94.59
2022-08-30T04:00:50.249Z,94.34
2022-08-30T04:01:50.296Z,93.67
2022-08-30T04:02:50.230Z,94.69
2022-08-30T04:03:51.199Z,94.69
2022-08-30T04:04:50.173Z,93.98
2022-08-30T04:05:50.166Z,94.69
2022-08-30T04:06:50.153Z,94.89
2022-08-30T04:07:50.165Z,95.30
2022-08-30T04:08:50.208Z,95.09
2022-08-30T04:09:50.122Z,95.40
2022-08-30T04:10:50.114Z,94.59
2022-08-30T04:11:50.182Z,94.28
2022-08-30T04:12:50.093Z,94.08
2022-08-30T04:13:50.099Z,93.77
2022-08-30T04:14:50.071Z,93.87
2022-08-30T04:15:50.164Z,93.77
2022-08-30T04:16:50.139Z,93.67
2022-08-30T04:17:50.027Z,93.87
2022-08-30T04:18:50.024Z,93.67
2022-08-30T04:19:50.017Z,93.87
2022-08-30T04:20:50.080Z,94.18
2022-08-30T04:21:50.009Z,94.04
2022-08-30T04:22:49.978Z,93.43
2022-08-30T04:23:49.962Z,93.43
2022-08-30T04:24:49.954Z,93.93
2022-08-30T04:25:49.944Z,94.08
2022-08-30T04:26:49.970Z,94.08
2022-08-30T04:27:49.985Z,94.08
2022-08-30T04:28:49.920Z,94.69
2022-08-30T04:29:49.904Z,94.28
2022-08-30T04:30:49.911Z,94.69
2022-08-30T04:31:49.930Z,93.87
2022-08-30T04:32:49.861Z,94.18
2022-08-30T04:33:49.880Z,94.08
2022-08-30T04:34:49.846Z,94.08
2022-08-30T04:35:49.836Z,93.67
2022-08-30T04:36:49.824Z,93.77
2022-08-30T04:37:49.831Z,93.47
2022-08-30T04:38:49.833Z,93.57
2022-08-30T04:39:49.855Z,93.37
2022-08-30T04:40:49.775Z,93.67
2022-08-30T04:41:49.773Z,93.67
2022-08-30T04:42:49.754Z,93.47
2022-08-30T04:43:49.791Z,94.08
2022-08-30T04:44:49.739Z,93.98
2022-08-30T04:45:49.791Z,94.08
2022-08-30T04:46:49.774Z,93.57
2022-08-30T04:47:49.714Z,93.57
2022-08-30T04:48:49.811Z,93.57
2022-08-30T04:49:49.764Z,93.57
2022-08-30T04:50:49.664Z,93.12
2022-08-30T04:51:49.655Z,93.52
2022-08-30T04:52:49.695Z,93.43
2022-08-30T04:53:49.647Z,93.26
2022-08-30T04:54:49.663Z,93.43
2022-08-30T04:55:49.623Z,94.08
2022-08-30T04:56:49.604Z,94.08
2022-08-30T04:57:49.590Z,93.67
2022-08-30T04:58:49.585Z,93.83
2022-08-30T04:59:49.567Z,94.08
2022-08-30T05:00:49.683Z,94.08
2022-08-30T05:01:49.640Z,94.38
2022-08-30T05:02:49.647Z,94.18
2022-08-30T05:03:49.517Z,94.43
2022-08-30T05:04:49.514Z,93.51
2022-08-30T05:05:49.507Z,94.43
2022-08-30T05:06:49.505Z,94.73
2022-08-30T05:07:49.508Z,94.43
2022-08-30T05:08:49.469Z,94.23
2022-08-30T05:09:49.458Z,94.12
2022-08-30T05:10:49.462Z,93.01
2022-08-30T05:11:49.436Z,93.21
2022-08-30T05:12:49.427Z,93.21
2022-08-30T05:13:49.454Z,92.25
2022-08-30T05:14:49.409Z,93.26
2022-08-30T05:15:49.416Z,94.08
2022-08-30T05:16:49.390Z,93.47
2022-08-30T05:17:49.615Z,92.65
2022-08-30T05:18:49.361Z,93.06
2022-08-30T05:19:49.341Z,92.55
2022-08-30T05:20:49.353Z,91.80
2022-08-30T05:21:49.335Z,92.30
2022-08-30T05:22:49.332Z,91.60
2022-08-30T05:23:49.302Z,92.30
2022-08-30T05:24:49.307Z,93.12
2022-08-30T05:25:49.279Z,93.22
2022-08-30T05:26:49.285Z,92.82
2022-08-30T05:27:49.268Z,92.91
2022-08-30T05:28:49.699Z,92.71
2022-08-30T05:29:49.258Z,92.51
2022-08-30T05:30:49.231Z,93.02
2022-08-30T05:31:49.284Z,93.28
2022-08-30T05:32:49.223Z,93.73
2022-08-30T05:33:49.204Z,92.87
2022-08-30T05:34:49.181Z,92.02
2022-08-30T05:35:49.184Z,91.36
2022-08-30T05:36:49.179Z,90.80
2022-08-30T05:37:49.176Z,92.52
2022-08-30T05:38:49.185Z,92.07
2022-08-30T05:39:51.324Z,92.63
2022-08-30T05:40:49.138Z,93.03
2022-08-30T05:41:49.109Z,92.42
2022-08-30T05:42:49.133Z,92.02
2022-08-30T05:43:49.098Z,92.32
2022-08-30T05:44:49.078Z,92.48
2022-08-30T05:45:49.182Z,91.74
2022-08-30T05:46:49.136Z,90.14
2022-08-30T05:47:49.045Z,89.04
2022-08-30T05:48:49.029Z,87.13
2022-08-30T05:49:49.037Z,83.40
2022-08-30T05:50:49.016Z,83.05
2022-08-30T05:51:48.990Z,83.62
2022-08-30T05:52:49.000Z,83.22
2022-08-30T05:53:48.992Z,82.37
2022-08-30T05:54:48.958Z,81.79
2022-08-30T05:55:48.944Z,81.89
2022-08-30T05:56:48.934Z,79.93
2022-08-30T05:57:48.927Z,80.44
2022-08-30T05:58:49.687Z,79.83
2022-08-30T05:59:48.915Z,80.04
2022-08-30T06:00:48.901Z,80.64
2022-08-30T06:01:48.952Z,80.94
2022-08-30T06:02:48.920Z,81.45
2022-08-30T06:03:48.855Z,82.11
2022-08-30T06:04:48.996Z,81.35
2022-08-30T06:05:48.854Z,79.93
2022-08-30T06:06:48.828Z,81.65
2022-08-30T06:07:48.820Z,81.95
2022-08-30T06:08:48.803Z,79.77
2022-08-30T06:09:48.809Z,81.42
2022-08-30T06:10:48.801Z,81.05
2022-08-30T06:11:48.774Z,81.96
2022-08-30T06:12:48.760Z,81.46
2022-08-30T06:13:48.749Z,81.46
2022-08-30T06:14:48.746Z,83.34
2022-08-30T06:15:48.800Z,81.89
2022-08-30T06:16:48.736Z,81.24
2022-08-30T06:17:48.731Z,81.15
2022-08-30T06:18:48.690Z,78.72
2022-08-30T06:19:48.680Z,75.90
2022-08-30T06:20:50.251Z,76.87
2022-08-30T06:21:48.699Z,75.83
2022-08-30T06:22:48.644Z,77.97
2022-08-30T06:23:48.634Z,79.52
2022-08-30T06:25:01.394Z,78.28
2022-08-30T06:25:49.647Z,80.10
2022-08-30T06:26:48.624Z,79.93
2022-08-30T06:27:50.426Z,78.42
2022-08-30T06:28:48.582Z,79.90
2022-08-30T06:29:48.608Z,79.69
2022-08-30T06:30:48.562Z,78.96
2022-08-30T06:31:48.569Z,79.86
2022-08-30T06:32:48.590Z,78.35
2022-08-30T06:33:48.528Z,79.39
2022-08-30T06:34:48.517Z,78.25
2022-08-30T06:35:59.214Z,78.99
2022-08-30T06:36:49.508Z,79.19
2022-08-30T06:37:48.489Z,79.05
2022-08-30T06:38:48.505Z,77.11
2022-08-30T06:39:48.461Z,76.23
2022-08-30T06:40:48.544Z,77.75
2022-08-30T06:41:48.444Z,76.03
2022-08-30T06:42:48.425Z,76.64
2022-08-30T06:43:49.349Z,76.64
2022-08-30T06:44:48.429Z,76.57
2022-08-30T06:45:48.391Z,78.45
2022-08-30T06:46:48.530Z,76.23
2022-08-30T06:47:48.447Z,77.14
2022-08-30T06:48:48.734Z,78.31
2022-08-30T06:49:48.361Z,76.36
2022-08-30T06:50:48.348Z,74.65
2022-08-30T06:51:48.329Z,75.39
2022-08-30T06:52:48.327Z,73.55
2022-08-30T06:53:48.347Z,74.05
2022-08-30T06:54:48.299Z,73.95
2022-08-30T06:55:48.694Z,74.21
2022-08-30T06:56:58.335Z,74.32
2022-08-30T06:57:49.259Z,71.97
2022-08-30T06:58:48.272Z,72.44
2022-08-30T06:59:48.252Z,70.83
2022-08-30T07:00:48.231Z,73.14
2022-08-30T07:01:48.280Z,70.79
2022-08-30T07:02:48.311Z,72.87
2022-08-30T07:03:48.202Z,72.90
2022-08-30T07:04:48.202Z,73.27
2022-08-30T07:05:48.174Z,72.74
2022-08-30T07:06:48.177Z,74.04
2022-08-30T07:07:48.154Z,74.98
2022-08-30T07:08:48.159Z,73.27
2022-08-30T07:09:48.139Z,73.78
2022-08-30T07:10:48.146Z,73.27
2022-08-30T07:11:48.115Z,72.87
2022-08-30T07:12:48.101Z,74.35
2022-08-30T07:13:48.088Z,73.14
2022-08-30T07:14:48.081Z,72.74
2022-08-30T07:15:48.134Z,72.87
2022-08-30T07:16:51.252Z,75.89
2022-08-30T07:17:48.056Z,74.15
2022-08-30T07:18:48.039Z,73.50
2022-08-30T07:19:48.027Z,74.24
2022-08-30T07:20:48.011Z,73.94
2022-08-30T07:21:48.010Z,75.11
2022-08-30T07:22:47.990Z,72.74
2022-08-30T07:23:52.621Z,73.14
2022-08-30T07:24:48.971Z,73.64
2022-08-30T07:25:47.969Z,72.57
2022-08-30T07:26:47.953Z,75.05
2022-08-30T07:27:47.935Z,75.05
2022-08-30T07:28:47.930Z,73.38
2022-08-30T07:29:47.913Z,74.68
2022-08-30T07:30:47.916Z,74.44
2022-08-30T07:31:47.919Z,73.71
2022-08-30T07:32:47.900Z,75.79
2022-08-30T07:33:47.865Z,73.78
2022-08-30T07:34:47.859Z,76.09
2022-08-30T07:35:47.990Z,75.55
2022-08-30T07:36:47.834Z,74.11
2022-08-30T07:37:47.821Z,71.50
2022-08-30T07:38:47.810Z,71.50
2022-08-30T07:39:48.286Z,73.97
2022-08-30T07:40:47.832Z,73.71
2022-08-30T07:41:47.811Z,73.47
2022-08-30T07:42:47.789Z,72.77
2022-08-30T07:43:47.757Z,73.10
2022-08-30T07:44:47.754Z,74.04
2022-08-30T07:45:47.735Z,74.24
2022-08-30T07:46:47.834Z,74.07
2022-08-30T07:47:47.710Z,74.11
2022-08-30T07:48:47.712Z,74.64
2022-08-30T07:49:47.694Z,75.45
2022-08-30T07:50:47.693Z,75.04
2022-08-30T07:51:47.687Z,73.36
2022-08-30T07:52:47.672Z,71.83
2022-08-30T07:53:47.662Z,73.61
2022-08-30T07:54:47.658Z,73.30
2022-08-30T07:55:48.652Z,75.34
2022-08-30T07:56:47.617Z,73.50
2022-08-30T07:57:47.756Z,72.67
2022-08-30T07:58:47.597Z,74.21
2022-08-30T07:59:47.590Z,74.98
2022-08-30T08:00:47.591Z,74.07
2022-08-30T08:01:47.589Z,73.30
2022-08-30T08:02:47.649Z,74.98
2022-08-30T08:03:47.553Z,72.94
2022-08-30T08:04:47.526Z,75.31
2022-08-30T08:05:47.537Z,72.93
2022-08-30T08:06:47.506Z,70.93
2022-08-30T08:07:47.495Z,71.39
2022-08-30T08:08:47.493Z,71.19
2022-08-30T08:09:47.490Z,71.46
2022-08-30T08:10:47.464Z,69.32
2022-08-30T08:11:47.449Z,71.56
2022-08-30T08:12:47.443Z,71.53
2022-08-30T08:13:53.578Z,72.86
2022-08-30T08:14:48.438Z,71.66
2022-08-30T08:15:47.470Z,71.33
2022-08-30T08:16:47.467Z,72.80
2022-08-30T08:17:47.397Z,73.22
2022-08-30T08:18:47.390Z,70.43
2022-08-30T08:19:47.367Z,69.26
2022-08-30T08:20:47.359Z,69.89
2022-08-30T08:21:48.619Z,69.09
2022-08-30T08:22:47.385Z,69.59
2022-08-30T08:23:47.324Z,69.56
2022-08-30T08:24:47.327Z,68.89
2022-08-30T08:25:47.296Z,69.59
2022-08-30T08:26:47.287Z,69.56
2022-08-30T08:27:47.309Z,68.36
2022-08-30T08:28:47.319Z,69.12
2022-08-30T08:29:47.259Z,69.66
2022-08-30T08:30:48.363Z,68.89
2022-08-30T08:31:47.285Z,68.89
2022-08-30T08:32:47.216Z,68.19
2022-08-30T08:33:47.270Z,68.05
2022-08-30T08:34:47.229Z,68.79
2022-08-30T08:35:47.199Z,68.49
2022-08-30T08:36:47.182Z,68.43
2022-08-30T08:37:47.166Z,69.73
2022-08-30T08:38:47.161Z,67.66
2022-08-30T08:39:47.252Z,69.53
2022-08-30T08:40:47.254Z,69.99
2022-08-30T08:41:47.138Z,70.36
2022-08-30T08:42:47.117Z,70.12
2022-08-30T08:43:47.103Z,69.69
2022-08-30T08:44:50.235Z,70.59
2022-08-30T08:45:48.086Z,71.53
2022-08-30T08:46:47.133Z,68.99
2022-08-30T08:47:47.056Z,69.23
2022-08-30T08:48:59.505Z,69.29
2022-08-30T08:49:48.043Z,68.73
2022-08-30T08:50:47.035Z,69.09
2022-08-30T08:51:47.023Z,69.93
2022-08-30T08:52:47.030Z,69.82
2022-08-30T08:53:47.301Z,68.96
2022-08-30T08:54:46.975Z,68.69
2022-08-30T08:56:46.974Z,67.59
2022-08-30T08:57:47.024Z,67.16
2022-08-30T08:58:46.936Z,69.66
2022-08-30T08:59:46.937Z,67.63
2022-08-30T09:00:47.088Z,67.43
2022-08-30T09:01:46.953Z,68.55
2022-08-30T09:02:46.900Z,67.76
2022-08-30T09:03:46.899Z,69.12
2022-08-30T09:04:46.930Z,68.33
2022-08-30T09:05:46.886Z,67.19
2022-08-30T09:06:46.858Z,65.80
2022-08-30T09:07:46.862Z,67.06
2022-08-30T09:08:46.833Z,68.86
2022-08-30T09:09:46.874Z,67.43
2022-08-30T09:10:50.811Z,66.76
2022-08-30T09:11:46.795Z,68.86
2022-08-30T09:12:46.792Z,67.56
2022-08-30T09:13:46.774Z,68.19
2022-08-30T09:14:46.853Z,67.79
2022-08-30T09:15:48.977Z,69.62
2022-08-30T09:16:47.749Z,70.32
2022-08-30T09:17:46.730Z,69.53
2022-08-30T09:18:49.069Z,71.33
2022-08-30T09:19:46.712Z,69.26
2022-08-30T09:20:46.725Z,69.62
2022-08-30T09:21:46.694Z,69.53
2022-08-30T09:22:47.704Z,68.13
2022-08-30T09:23:46.740Z,69.99
2022-08-30T09:24:46.662Z,69.59
2022-08-30T09:25:46.644Z,70.53
2022-08-30T09:26:46.754Z,69.93
2022-08-30T09:27:46.672Z,69.82
2022-08-30T09:28:46.639Z,69.89
2022-08-30T09:29:46.609Z,69.99
2022-08-30T09:30:46.633Z,71.06
2022-08-30T09:31:46.587Z,69.49
2022-08-30T09:32:46.664Z,69.06
2022-08-30T09:33:46.569Z,69.76
2022-08-30T09:34:46.556Z,71.23
2022-08-30T09:35:46.555Z,70.56
2022-08-30T09:36:46.541Z,67.49
2022-08-30T09:37:46.535Z,67.66
2022-08-30T09:38:46.518Z,69.59
2022-08-30T09:39:46.512Z,69.39
2022-08-30T09:40:46.530Z,69.79
2022-08-30T09:41:46.476Z,69.59
2022-08-30T09:42:46.480Z,71.46
2022-08-30T09:43:46.469Z,69.82
2022-08-30T09:44:46.445Z,69.59
2022-08-30T09:45:46.487Z,69.23
2022-08-30T09:46:46.457Z,68.52
2022-08-30T09:47:46.425Z,68.96
2022-08-30T09:48:46.401Z,69.32
2022-08-30T09:49:46.548Z,65.83
2022-08-30T09:50:46.380Z,64.43
2022-08-30T09:51:46.388Z,68.13
2022-08-30T09:52:46.365Z,67.80
2022-08-30T09:53:55.714Z,66.96
2022-08-30T09:54:47.335Z,66.20
2022-08-30T09:55:46.329Z,65.67
2022-08-30T09:56:46.326Z,66.50
2022-08-30T09:57:46.321Z,66.36
2022-08-30T09:58:46.311Z,66.17
2022-08-30T09:59:46.339Z,66.66
2022-08-30T10:00:46.284Z,62.54
2022-08-30T10:01:46.263Z,63.57
2022-08-30T10:02:46.269Z,65.94
2022-08-30T10:03:46.239Z,62.94
2022-08-30T10:04:46.246Z,62.41
2022-08-30T10:05:46.222Z,63.34
2022-08-30T10:06:46.203Z,63.24
2022-08-30T10:07:46.255Z,62.67
2022-08-30T10:08:46.208Z,64.14
2022-08-30T10:09:46.188Z,63.41
2022-08-30T10:10:46.171Z,60.39
2022-08-30T10:11:46.156Z,61.46
2022-08-30T10:12:46.175Z,65.14
2022-08-30T10:13:46.143Z,61.63
2022-08-30T10:14:46.178Z,60.96
2022-08-30T10:15:46.116Z,61.06
2022-08-30T10:16:46.099Z,60.79
2022-08-30T10:17:46.089Z,66.53
2022-08-30T10:18:46.092Z,61.13
2022-08-30T10:19:46.084Z,62.72
2022-08-30T10:20:46.057Z,64.95
2022-08-30T10:21:46.046Z,59.78
2022-08-30T10:22:46.176Z,62.37
2022-08-30T10:23:46.020Z,62.10
2022-08-30T10:24:46.031Z,61.87
2022-08-30T10:25:46.000Z,62.13
2022-08-30T10:26:45.992Z,61.14
2022-08-30T10:27:45.993Z,61.41
2022-08-30T10:28:46.826Z,60.11
2022-08-30T10:29:45.959Z,62.32
2022-08-30T10:30:46.451Z,61.13
2022-08-30T10:31:45.940Z,62.65
2022-08-30T10:32:46.030Z,63.42
2022-08-30T10:33:45.921Z,62.99
2022-08-30T10:34:45.908Z,62.79
2022-08-30T10:35:45.897Z,62.66
2022-08-30T10:36:45.879Z,62.59
2022-08-30T10:37:45.919Z,62.63
2022-08-30T10:38:45.871Z,60.02
2022-08-30T10:39:45.848Z,60.91
2022-08-30T10:40:45.865Z,61.78
2022-08-30T10:41:45.836Z,61.11
2022-08-30T10:42:45.822Z,60.38
2022-08-30T10:43:45.811Z,61.96
2022-08-30T10:44:46.816Z,61.03
2022-08-30T10:45:45.782Z,62.23
2022-08-30T10:46:45.778Z,62.16
2022-08-30T10:47:45.762Z,59.62
2022-08-30T10:48:47.525Z,59.30
2022-08-30T10:49:45.764Z,59.51
2022-08-30T10:50:45.726Z,58.81
2022-08-30T10:51:45.723Z,59.05
2022-08-30T10:52:45.863Z,58.29
2022-08-30T10:53:45.700Z,56.40
2022-08-30T10:54:45.681Z,56.04
2022-08-30T10:55:49.844Z,56.06
2022-08-30T10:56:45.673Z,59.14
2022-08-30T10:57:45.679Z,57.87
2022-08-30T10:58:45.660Z,55.79
2022-08-30T10:59:45.643Z,56.88
2022-08-30T11:00:45.687Z,57.75
2022-08-30T11:01:46.358Z,56.49
2022-08-30T11:02:45.611Z,54.87
2022-08-30T11:03:45.616Z,55.57
2022-08-30T11:04:45.748Z,55.07
2022-08-30T11:05:45.583Z,56.95
2022-08-30T11:06:45.563Z,55.49
2022-08-30T11:07:46.707Z,57.11
2022-08-30T11:08:45.544Z,53.91
2022-08-30T11:09:45.517Z,55.17
2022-08-30T11:10:49.559Z,53.61
2022-08-30T11:11:45.506Z,55.32
2022-08-30T11:12:45.515Z,53.63
2022-08-30T11:13:45.501Z,56.51
2022-08-30T11:14:45.465Z,54.90
2022-08-30T11:15:45.472Z,55.91
2022-08-30T11:16:45.463Z,56.29
2022-08-30T11:17:45.433Z,55.00
2022-08-30T11:18:45.462Z,55.47
2022-08-30T11:19:46.416Z,54.23
2022-08-30T11:20:45.405Z,55.22
2022-08-30T11:21:45.402Z,53.98
2022-08-30T11:22:45.378Z,55.50
2022-08-30T11:23:45.362Z,56.62
2022-08-30T11:24:45.381Z,57.26
2022-08-30T11:25:45.370Z,56.71
2022-08-30T11:26:45.457Z,55.72
2022-08-30T11:27:45.326Z,55.49
2022-08-30T11:28:45.349Z,55.72
2022-08-30T11:29:45.300Z,55.69
2022-08-30T11:30:45.297Z,54.28
2022-08-30T11:31:45.317Z,55.87
2022-08-30T11:32:45.286Z,55.27
2022-08-30T11:33:46.064Z,55.36
2022-08-30T11:34:45.267Z,54.17
2022-08-30T11:35:48.338Z,54.21
2022-08-30T11:36:46.310Z,55.00
2022-08-30T11:37:45.215Z,56.85
2022-08-30T11:38:45.205Z,55.83
2022-08-30T11:39:45.305Z,54.94
2022-08-30T11:40:45.198Z,53.75
2022-08-30T11:41:48.008Z,54.32
2022-08-30T11:42:45.174Z,56.05
2022-08-30T11:43:45.152Z,53.97
2022-08-30T11:44:45.144Z,53.95
2022-08-30T11:45:45.171Z,52.19
2022-08-30T11:46:45.401Z,52.78
2022-08-30T11:47:45.234Z,53.38
2022-08-30T11:48:46.966Z,51.60
2022-08-30T11:49:46.094Z,53.11
2022-08-30T11:50:48.266Z,53.58
2022-08-30T11:51:46.659Z,50.13
2022-08-30T11:52:46.161Z,51.23
2022-08-30T11:53:45.044Z,53.13
2022-08-30T11:54:45.051Z,52.41
2022-08-30T11:55:45.089Z,50.36
2022-08-30T11:56:45.010Z,52.34
2022-08-30T11:57:44.997Z,53.33
2022-08-30T11:58:45.015Z,52.71
2022-08-30T11:59:44.984Z,50.93
2022-08-30T12:00:50.725Z,50.60
2022-08-30T12:01:50.679Z,51.60
2022-08-30T12:02:46.041Z,51.10
2022-08-30T12:03:45.140Z,50.34
2022-08-30T12:04:44.936Z,50.23
2022-08-30T12:05:44.916Z,48.53
2022-08-30T12:06:44.897Z,54.61
2022-08-30T12:07:44.904Z,48.16
2022-08-30T12:08:44.976Z,48.88
2022-08-30T12:09:44.868Z,48.72
2022-08-30T12:10:44.857Z,51.50
2022-08-30T12:11:44.916Z,48.50
2022-08-30T12:12:44.850Z,50.13
2022-08-30T12:13:44.833Z,50.83
2022-08-30T12:14:44.870Z,53.06
2022-08-30T12:15:44.813Z,53.60
2022-08-30T12:16:44.878Z,51.03
2022-08-30T12:17:44.787Z,50.83
2022-08-30T12:18:44.774Z,50.12
2022-08-30T12:19:49.117Z,49.44
2022-08-30T12:20:45.755Z,47.64
2022-08-30T12:21:45.341Z,46.08
2022-08-30T12:22:44.776Z,46.72
2022-08-30T12:23:45.024Z,50.23
2022-08-30T12:24:44.703Z,50.98
2022-08-30T12:25:44.755Z,48.80
2022-08-30T12:26:44.678Z,48.48
2022-08-30T12:27:44.672Z,46.50
2022-08-30T12:28:44.661Z,48.60
2022-08-30T12:29:44.749Z,47.52
2022-08-30T12:30:46.453Z,45.53
2022-08-30T12:31:44.691Z,49.17
2022-08-30T12:32:44.617Z,45.53
2022-08-30T12:33:44.673Z,49.19
2022-08-30T12:34:44.600Z,46.42
2022-08-30T12:35:44.643Z,48.58
2022-08-30T12:36:44.585Z,47.86
2022-08-30T12:37:44.563Z,48.36
2022-08-30T12:38:44.569Z,46.38
2022-08-30T12:39:44.560Z,46.38
2022-08-30T12:40:44.611Z,45.00
2022-08-30T12:41:44.515Z,46.20
2022-08-30T12:42:44.581Z,46.62
2022-08-30T12:43:44.493Z,47.12
2022-08-30T12:44:44.487Z,49.59
2022-08-30T12:45:44.521Z,47.89
2022-08-30T12:46:44.493Z,48.58
2022-08-30T12:47:44.472Z,46.52
2022-08-30T12:48:44.438Z,45.93
2022-08-30T12:49:44.552Z,46.30
2022-08-30T12:50:44.436Z,48.67
2022-08-30T12:51:44.410Z,51.23
2022-08-30T12:52:44.421Z,47.78
2022-08-30T12:53:44.402Z,48.99